sensor_id;sensor_type;location;lat;lon;timestamp;temperature;humidity
11922;DHT22;6021;51.182;3.160;2023-07-31T00:01:14;16.30;99.90
11922;DHT22;6021;51.182;3.160;2023-07-31T00:03:42;16.30;99.90
11922;DHT22;6021;51.182;3.160;2023-07-31T00:06:11;16.30;99.90
11922;DHT22;6021;51.182;3.160;2023-07-31T00:08:39;16.40;99.90
11922;DHT22;6021;51.182;3.160;2023-07-31T00:11:08;16.40;99.90
11922;DHT22;6021;51.182;3.160;2023-07-31T00:13:36;16.20;99.90
11922;DHT22;6021;51.182;3.160;2023-07-31T00:16:04;16.10;99.90
11922;DHT22;6021;51.182;3.160;2023-07-31T00:18:33;16.20;99.90
11922;DHT22;6021;51.182;3.160;2023-07-31T00:21:01;16.20;99.90
11922;DHT22;6021;51.182;3.160;2023-07-31T00:23:29;16.30;99.90
11922;DHT22;6021;51.182;3.160;2023-07-31T00:25:58;16.10;99.90
11922;DHT22;6021;51.182;3.160;2023-07-31T00:28:26;16.10;99.90
11922;DHT22;6021;51.182;3.160;2023-07-31T00:30:56;16.00;99.90
11922;DHT22;6021;51.182;3.160;2023-07-31T00:33:24;16.20;99.90
11922;DHT22;6021;51.182;3.160;2023-07-31T00:35:52;16.30;99.90
11922;DHT22;6021;51.182;3.160;2023-07-31T00:38:21;16.20;99.90
11922;DHT22;6021;51.182;3.160;2023-07-31T00:40:49;16.20;99.90
11922;DHT22;6021;51.182;3.160;2023-07-31T00:43:17;16.10;99.90
11922;DHT22;6021;51.182;3.160;2023-07-31T00:45:47;16.10;99.90
11922;DHT22;6021;51.182;3.160;2023-07-31T00:48:15;16.10;99.90
11922;DHT22;6021;51.182;3.160;2023-07-31T00:50:44;16.10;99.90
11922;DHT22;6021;51.182;3.160;2023-07-31T00:53:12;16.10;99.90
11922;DHT22;6021;51.182;3.160;2023-07-31T00:55:42;16.10;99.90
11922;DHT22;6021;51.182;3.160;2023-07-31T00:58:10;16.10;99.90
11922;DHT22;6021;51.182;3.160;2023-07-31T01:00:38;16.10;99.90
11922;DHT22;6021;51.182;3.160;2023-07-31T01:03:07;16.10;99.90
11922;DHT22;6021;51.182;3.160;2023-07-31T01:06:14;16.00;99.90
11922;DHT22;6021;51.182;3.160;2023-07-31T01:09:03;16.10;99.90
11922;DHT22;6021;51.182;3.160;2023-07-31T01:11:34;16.10;99.90
11922;DHT22;6021;51.182;3.160;2023-07-31T01:14:03;16.00;99.90
11922;DHT22;6021;51.182;3.160;2023-07-31T01:16:33;16.00;99.90
11922;DHT22;6021;51.182;3.160;2023-07-31T01:19:01;16.00;99.90
11922;DHT22;6021;51.182;3.160;2023-07-31T01:24:25;16.10;99.90
11922;DHT22;6021;51.182;3.160;2023-07-31T01:27:01;16.10;99.90
11922;DHT22;6021;51.182;3.160;2023-07-31T01:29:31;16.10;99.90
11922;DHT22;6021;51.182;3.160;2023-07-31T01:32:01;16.00;99.90
11922;DHT22;6021;51.182;3.160;2023-07-31T01:34:30;16.00;99.90
11922;DHT22;6021;51.182;3.160;2023-07-31T01:36:59;16.10;99.90
11922;DHT22;6021;51.182;3.160;2023-07-31T01:39:27;16.10;99.90
11922;DHT22;6021;51.182;3.160;2023-07-31T01:41:56;16.10;99.90
11922;DHT22;6021;51.182;3.160;2023-07-31T01:44:24;16.10;99.90
11922;DHT22;6021;51.182;3.160;2023-07-31T01:46:52;16.10;99.90
11922;DHT22;6021;51.182;3.160;2023-07-31T01:49:21;16.00;99.90
11922;DHT22;6021;51.182;3.160;2023-07-31T01:51:49;16.00;99.90
11922;DHT22;6021;51.182;3.160;2023-07-31T01:54:18;16.10;99.90
11922;DHT22;6021;51.182;3.160;2023-07-31T01:56:46;16.00;99.90
11922;DHT22;6021;51.182;3.160;2023-07-31T01:59:14;15.90;99.90
11922;DHT22;6021;51.182;3.160;2023-07-31T02:01:43;15.90;99.90
11922;DHT22;6021;51.182;3.160;2023-07-31T02:04:11;16.00;99.90
11922;DHT22;6021;51.182;3.160;2023-07-31T02:06:39;16.00;99.90
11922;DHT22;6021;51.182;3.160;2023-07-31T02:09:08;16.10;99.90
11922;DHT22;6021;51.182;3.160;2023-07-31T02:11:36;16.00;99.90
11922;DHT22;6021;51.182;3.160;2023-07-31T02:14:04;16.00;99.90
11922;DHT22;6021;51.182;3.160;2023-07-31T02:16:33;16.10;99.90
11922;DHT22;6021;51.182;3.160;2023-07-31T02:19:01;16.10;99.90
11922;DHT22;6021;51.182;3.160;2023-07-31T02:21:29;16.10;99.90
11922;DHT22;6021;51.182;3.160;2023-07-31T02:23:58;16.20;99.90
11922;DHT22;6021;51.182;3.160;2023-07-31T02:26:26;16.10;99.90
11922;DHT22;6021;51.182;3.160;2023-07-31T02:28:54;16.10;99.90
11922;DHT22;6021;51.182;3.160;2023-07-31T02:31:23;16.10;99.90
11922;DHT22;6021;51.182;3.160;2023-07-31T02:33:51;16.10;99.90
11922;DHT22;6021;51.182;3.160;2023-07-31T02:36:19;16.10;99.90
11922;DHT22;6021;51.182;3.160;2023-07-31T02:38:48;16.00;99.90
11922;DHT22;6021;51.182;3.160;2023-07-31T02:41:18;16.10;99.90
11922;DHT22;6021;51.182;3.160;2023-07-31T02:43:46;16.10;99.90
11922;DHT22;6021;51.182;3.160;2023-07-31T02:46:14;16.10;99.90
11922;DHT22;6021;51.182;3.160;2023-07-31T02:48:43;16.10;99.90
11922;DHT22;6021;51.182;3.160;2023-07-31T02:51:11;16.10;99.90
11922;DHT22;6021;51.182;3.160;2023-07-31T02:53:40;16.00;99.90
11922;DHT22;6021;51.182;3.160;2023-07-31T02:56:08;16.00;99.90
11922;DHT22;6021;51.182;3.160;2023-07-31T02:58:36;16.00;99.90
11922;DHT22;6021;51.182;3.160;2023-07-31T03:01:05;16.00;99.90
11922;DHT22;6021;51.182;3.160;2023-07-31T03:03:33;16.10;99.90
11922;DHT22;6021;51.182;3.160;2023-07-31T03:06:02;16.00;99.90
11922;DHT22;6021;51.182;3.160;2023-07-31T03:08:30;16.00;99.90
11922;DHT22;6021;51.182;3.160;2023-07-31T03:10:58;16.00;99.90
11922;DHT22;6021;51.182;3.160;2023-07-31T03:13:27;16.00;99.90
11922;DHT22;6021;51.182;3.160;2023-07-31T03:15:55;16.00;99.90
11922;DHT22;6021;51.182;3.160;2023-07-31T03:18:23;15.90;99.90
11922;DHT22;6021;51.182;3.160;2023-07-31T03:20:52;16.00;99.90
11922;DHT22;6021;51.182;3.160;2023-07-31T03:23:20;16.10;99.90
11922;DHT22;6021;51.182;3.160;2023-07-31T03:26:02;16.10;99.90
11922;DHT22;6021;51.182;3.160;2023-07-31T03:28:33;16.00;99.90
11922;DHT22;6021;51.182;3.160;2023-07-31T03:31:02;16.00;99.90
11922;DHT22;6021;51.182;3.160;2023-07-31T03:33:30;16.00;99.90
11922;DHT22;6021;51.182;3.160;2023-07-31T03:35:58;16.00;99.90
11922;DHT22;6021;51.182;3.160;2023-07-31T03:38:27;15.90;99.90
11922;DHT22;6021;51.182;3.160;2023-07-31T03:40:55;15.90;99.90
11922;DHT22;6021;51.182;3.160;2023-07-31T03:43:25;15.90;99.90
11922;DHT22;6021;51.182;3.160;2023-07-31T03:45:53;15.90;99.90
11922;DHT22;6021;51.182;3.160;2023-07-31T03:48:22;15.90;99.90
11922;DHT22;6021;51.182;3.160;2023-07-31T03:50:50;16.00;99.90
11922;DHT22;6021;51.182;3.160;2023-07-31T03:53:19;15.90;99.90
11922;DHT22;6021;51.182;3.160;2023-07-31T03:55:47;16.00;99.90
11922;DHT22;6021;51.182;3.160;2023-07-31T03:58:16;16.00;99.90
11922;DHT22;6021;51.182;3.160;2023-07-31T04:00:45;16.00;99.90
11922;DHT22;6021;51.182;3.160;2023-07-31T04:03:13;15.90;99.90
11922;DHT22;6021;51.182;3.160;2023-07-31T04:05:41;16.00;99.90
11922;DHT22;6021;51.182;3.160;2023-07-31T04:08:10;16.10;99.90
11922;DHT22;6021;51.182;3.160;2023-07-31T04:10:38;16.10;99.90
11922;DHT22;6021;51.182;3.160;2023-07-31T04:13:07;16.10;99.90
11922;DHT22;6021;51.182;3.160;2023-07-31T04:15:35;16.30;99.90
11922;DHT22;6021;51.182;3.160;2023-07-31T04:18:04;16.20;99.90
11922;DHT22;6021;51.182;3.160;2023-07-31T04:20:32;16.10;99.90
11922;DHT22;6021;51.182;3.160;2023-07-31T04:23:00;16.10;99.90
11922;DHT22;6021;51.182;3.160;2023-07-31T04:25:29;16.10;99.90
11922;DHT22;6021;51.182;3.160;2023-07-31T04:27:57;16.10;99.90
11922;DHT22;6021;51.182;3.160;2023-07-31T04:30:26;16.10;99.90
11922;DHT22;6021;51.182;3.160;2023-07-31T04:32:54;16.10;99.90
11922;DHT22;6021;51.182;3.160;2023-07-31T04:35:22;16.10;99.90
11922;DHT22;6021;51.182;3.160;2023-07-31T04:37:51;16.10;99.90
11922;DHT22;6021;51.182;3.160;2023-07-31T04:40:20;16.10;99.90
11922;DHT22;6021;51.182;3.160;2023-07-31T04:42:49;16.10;99.90
11922;DHT22;6021;51.182;3.160;2023-07-31T04:45:17;16.20;99.90
11922;DHT22;6021;51.182;3.160;2023-07-31T04:47:46;16.20;99.90
11922;DHT22;6021;51.182;3.160;2023-07-31T04:50:14;16.10;99.90
11922;DHT22;6021;51.182;3.160;2023-07-31T04:52:42;16.20;99.90
11922;DHT22;6021;51.182;3.160;2023-07-31T04:55:11;16.20;99.90
11922;DHT22;6021;51.182;3.160;2023-07-31T04:57:39;16.20;99.90
11922;DHT22;6021;51.182;3.160;2023-07-31T05:00:08;16.30;99.90
11922;DHT22;6021;51.182;3.160;2023-07-31T05:02:36;16.30;99.90
11922;DHT22;6021;51.182;3.160;2023-07-31T05:05:05;16.20;99.90
11922;DHT22;6021;51.182;3.160;2023-07-31T05:07:33;16.20;99.90
11922;DHT22;6021;51.182;3.160;2023-07-31T05:10:02;16.30;99.90
11922;DHT22;6021;51.182;3.160;2023-07-31T05:12:30;16.30;99.90
11922;DHT22;6021;51.182;3.160;2023-07-31T05:14:58;16.40;99.90
11922;DHT22;6021;51.182;3.160;2023-07-31T05:17:27;16.30;99.90
11922;DHT22;6021;51.182;3.160;2023-07-31T05:19:55;16.30;99.90
11922;DHT22;6021;51.182;3.160;2023-07-31T05:22:23;16.30;99.90
11922;DHT22;6021;51.182;3.160;2023-07-31T05:24:52;16.30;99.90
11922;DHT22;6021;51.182;3.160;2023-07-31T05:27:21;16.30;99.90
11922;DHT22;6021;51.182;3.160;2023-07-31T05:29:49;16.30;99.90
11922;DHT22;6021;51.182;3.160;2023-07-31T05:32:18;16.30;99.90
11922;DHT22;6021;51.182;3.160;2023-07-31T05:34:46;16.30;99.90
11922;DHT22;6021;51.182;3.160;2023-07-31T05:37:15;16.40;99.90
11922;DHT22;6021;51.182;3.160;2023-07-31T05:39:43;16.40;99.90
11922;DHT22;6021;51.182;3.160;2023-07-31T05:42:11;16.40;99.90
11922;DHT22;6021;51.182;3.160;2023-07-31T05:44:40;16.40;99.90
11922;DHT22;6021;51.182;3.160;2023-07-31T05:47:08;16.40;99.90
11922;DHT22;6021;51.182;3.160;2023-07-31T05:49:36;16.30;99.90
11922;DHT22;6021;51.182;3.160;2023-07-31T05:52:05;16.20;99.90
11922;DHT22;6021;51.182;3.160;2023-07-31T05:54:36;16.20;99.90
11922;DHT22;6021;51.182;3.160;2023-07-31T05:57:05;16.20;99.90
11922;DHT22;6021;51.182;3.160;2023-07-31T05:59:33;16.20;99.90
11922;DHT22;6021;51.182;3.160;2023-07-31T06:02:02;16.30;99.90
11922;DHT22;6021;51.182;3.160;2023-07-31T06:04:30;16.30;99.90
11922;DHT22;6021;51.182;3.160;2023-07-31T06:07:00;16.30;99.90
11922;DHT22;6021;51.182;3.160;2023-07-31T06:09:29;16.30;99.90
11922;DHT22;6021;51.182;3.160;2023-07-31T06:11:57;16.40;99.90
11922;DHT22;6021;51.182;3.160;2023-07-31T06:14:26;16.30;99.90
11922;DHT22;6021;51.182;3.160;2023-07-31T06:16:54;16.30;99.90
11922;DHT22;6021;51.182;3.160;2023-07-31T06:19:22;16.30;99.90
11922;DHT22;6021;51.182;3.160;2023-07-31T06:21:51;16.30;99.90
11922;DHT22;6021;51.182;3.160;2023-07-31T06:24:19;16.40;99.90
11922;DHT22;6021;51.182;3.160;2023-07-31T06:26:49;16.40;99.90
11922;DHT22;6021;51.182;3.160;2023-07-31T06:29:18;16.40;99.90
11922;DHT22;6021;51.182;3.160;2023-07-31T06:31:46;16.40;99.90
11922;DHT22;6021;51.182;3.160;2023-07-31T06:34:14;16.40;99.90
11922;DHT22;6021;51.182;3.160;2023-07-31T06:36:43;16.40;99.90
11922;DHT22;6021;51.182;3.160;2023-07-31T06:39:11;16.30;99.90
11922;DHT22;6021;51.182;3.160;2023-07-31T06:41:41;16.40;99.90
11922;DHT22;6021;51.182;3.160;2023-07-31T06:44:10;16.40;99.90
11922;DHT22;6021;51.182;3.160;2023-07-31T06:46:39;16.40;99.90
11922;DHT22;6021;51.182;3.160;2023-07-31T06:49:07;16.50;99.90
11922;DHT22;6021;51.182;3.160;2023-07-31T06:51:35;16.40;99.90
11922;DHT22;6021;51.182;3.160;2023-07-31T06:54:05;16.50;99.90
11922;DHT22;6021;51.182;3.160;2023-07-31T06:56:34;16.50;99.90
11922;DHT22;6021;51.182;3.160;2023-07-31T06:59:03;16.50;99.90
11922;DHT22;6021;51.182;3.160;2023-07-31T07:01:32;16.50;99.90
11922;DHT22;6021;51.182;3.160;2023-07-31T07:04:00;16.50;99.90
11922;DHT22;6021;51.182;3.160;2023-07-31T07:06:28;16.50;99.90
11922;DHT22;6021;51.182;3.160;2023-07-31T07:08:57;16.50;99.90
11922;DHT22;6021;51.182;3.160;2023-07-31T07:11:25;16.40;99.90
11922;DHT22;6021;51.182;3.160;2023-07-31T07:13:54;16.40;99.90
11922;DHT22;6021;51.182;3.160;2023-07-31T07:16:22;16.50;99.90
11922;DHT22;6021;51.182;3.160;2023-07-31T07:18:50;16.50;99.90
11922;DHT22;6021;51.182;3.160;2023-07-31T07:21:19;16.70;99.90
11922;DHT22;6021;51.182;3.160;2023-07-31T07:23:47;16.60;99.90
11922;DHT22;6021;51.182;3.160;2023-07-31T07:26:16;16.50;99.90
11922;DHT22;6021;51.182;3.160;2023-07-31T07:28:44;16.50;99.90
11922;DHT22;6021;51.182;3.160;2023-07-31T07:31:12;16.50;99.90
11922;DHT22;6021;51.182;3.160;2023-07-31T07:33:41;16.60;99.90
11922;DHT22;6021;51.182;3.160;2023-07-31T07:36:09;16.60;99.90
11922;DHT22;6021;51.182;3.160;2023-07-31T07:38:37;16.60;99.90
11922;DHT22;6021;51.182;3.160;2023-07-31T07:41:06;16.60;99.90
11922;DHT22;6021;51.182;3.160;2023-07-31T07:43:35;16.50;99.90
11922;DHT22;6021;51.182;3.160;2023-07-31T07:46:03;16.50;99.90
11922;DHT22;6021;51.182;3.160;2023-07-31T07:48:31;16.50;99.90
11922;DHT22;6021;51.182;3.160;2023-07-31T07:51:00;16.60;99.90
11922;DHT22;6021;51.182;3.160;2023-07-31T07:53:28;16.60;99.90
11922;DHT22;6021;51.182;3.160;2023-07-31T07:55:56;16.50;99.90
11922;DHT22;6021;51.182;3.160;2023-07-31T07:58:25;16.60;99.90
11922;DHT22;6021;51.182;3.160;2023-07-31T08:00:53;16.70;99.90
11922;DHT22;6021;51.182;3.160;2023-07-31T08:03:22;16.70;99.90
11922;DHT22;6021;51.182;3.160;2023-07-31T08:05:50;16.80;99.90
11922;DHT22;6021;51.182;3.160;2023-07-31T08:08:19;16.90;99.90
11922;DHT22;6021;51.182;3.160;2023-07-31T08:10:47;16.90;99.90
11922;DHT22;6021;51.182;3.160;2023-07-31T08:13:15;16.90;99.90
11922;DHT22;6021;51.182;3.160;2023-07-31T08:15:44;16.80;99.90
11922;DHT22;6021;51.182;3.160;2023-07-31T08:18:12;16.80;99.90
11922;DHT22;6021;51.182;3.160;2023-07-31T08:20:41;16.90;99.90
11922;DHT22;6021;51.182;3.160;2023-07-31T08:23:09;16.90;99.90
11922;DHT22;6021;51.182;3.160;2023-07-31T08:25:38;17.00;99.90
11922;DHT22;6021;51.182;3.160;2023-07-31T08:28:07;17.00;99.90
11922;DHT22;6021;51.182;3.160;2023-07-31T08:30:35;17.10;99.90
11922;DHT22;6021;51.182;3.160;2023-07-31T08:33:03;17.10;99.90
11922;DHT22;6021;51.182;3.160;2023-07-31T08:35:32;17.10;99.90
11922;DHT22;6021;51.182;3.160;2023-07-31T08:38:00;17.20;99.90
11922;DHT22;6021;51.182;3.160;2023-07-31T08:40:29;17.30;99.90
11922;DHT22;6021;51.182;3.160;2023-07-31T08:42:58;17.40;99.90
11922;DHT22;6021;51.182;3.160;2023-07-31T08:45:29;17.30;99.90
11922;DHT22;6021;51.182;3.160;2023-07-31T08:47:59;17.40;99.90
11922;DHT22;6021;51.182;3.160;2023-07-31T08:50:28;17.20;99.90
11922;DHT22;6021;51.182;3.160;2023-07-31T08:52:57;17.20;99.90
11922;DHT22;6021;51.182;3.160;2023-07-31T08:55:26;17.20;99.90
11922;DHT22;6021;51.182;3.160;2023-07-31T08:57:56;17.20;99.90
11922;DHT22;6021;51.182;3.160;2023-07-31T09:00:25;17.20;99.90
11922;DHT22;6021;51.182;3.160;2023-07-31T09:03:06;17.30;99.90
11922;DHT22;6021;51.182;3.160;2023-07-31T09:05:30;17.30;99.90
11922;DHT22;6021;51.182;3.160;2023-07-31T09:08:00;17.30;99.90
11922;DHT22;6021;51.182;3.160;2023-07-31T09:10:30;17.20;99.90
11922;DHT22;6021;51.182;3.160;2023-07-31T09:12:58;17.30;99.90
11922;DHT22;6021;51.182;3.160;2023-07-31T09:15:28;17.20;99.90
11922;DHT22;6021;51.182;3.160;2023-07-31T09:18:00;17.30;99.90
11922;DHT22;6021;51.182;3.160;2023-07-31T09:20:29;17.30;99.90
11922;DHT22;6021;51.182;3.160;2023-07-31T09:23:11;17.30;99.90
11922;DHT22;6021;51.182;3.160;2023-07-31T09:25:30;17.30;99.90
11922;DHT22;6021;51.182;3.160;2023-07-31T09:28:00;17.30;99.90
11922;DHT22;6021;51.182;3.160;2023-07-31T09:30:29;17.30;99.90
11922;DHT22;6021;51.182;3.160;2023-07-31T09:33:02;17.30;99.90
11922;DHT22;6021;51.182;3.160;2023-07-31T09:35:36;17.40;99.90
11922;DHT22;6021;51.182;3.160;2023-07-31T09:38:15;17.40;99.90
11922;DHT22;6021;51.182;3.160;2023-07-31T09:40:46;17.50;99.90
11922;DHT22;6021;51.182;3.160;2023-07-31T09:43:20;17.50;99.90
11922;DHT22;6021;51.182;3.160;2023-07-31T09:45:53;17.40;99.90
11922;DHT22;6021;51.182;3.160;2023-07-31T09:48:19;17.40;99.90
11922;DHT22;6021;51.182;3.160;2023-07-31T09:50:48;17.50;99.90
11922;DHT22;6021;51.182;3.160;2023-07-31T09:53:17;17.50;99.90
11922;DHT22;6021;51.182;3.160;2023-07-31T09:55:45;17.60;99.90
11922;DHT22;6021;51.182;3.160;2023-07-31T09:58:14;17.70;99.90
11922;DHT22;6021;51.182;3.160;2023-07-31T10:00:42;17.70;99.90
11922;DHT22;6021;51.182;3.160;2023-07-31T10:03:11;17.70;99.90
11922;DHT22;6021;51.182;3.160;2023-07-31T10:05:45;17.80;99.90
11922;DHT22;6021;51.182;3.160;2023-07-31T10:08:16;17.80;99.90
11922;DHT22;6021;51.182;3.160;2023-07-31T10:10:46;17.90;99.90
11922;DHT22;6021;51.182;3.160;2023-07-31T10:13:14;17.90;99.90
11922;DHT22;6021;51.182;3.160;2023-07-31T10:15:43;17.90;99.90
11922;DHT22;6021;51.182;3.160;2023-07-31T10:18:12;17.90;99.90
11922;DHT22;6021;51.182;3.160;2023-07-31T10:20:41;17.90;99.90
11922;DHT22;6021;51.182;3.160;2023-07-31T10:23:10;18.00;99.90
11922;DHT22;6021;51.182;3.160;2023-07-31T10:25:40;17.90;99.90
11922;DHT22;6021;51.182;3.160;2023-07-31T10:28:10;18.00;99.90
11922;DHT22;6021;51.182;3.160;2023-07-31T10:30:40;18.00;99.90
11922;DHT22;6021;51.182;3.160;2023-07-31T10:33:09;18.00;99.90
11922;DHT22;6021;51.182;3.160;2023-07-31T10:35:38;18.00;99.90
11922;DHT22;6021;51.182;3.160;2023-07-31T10:38:12;18.00;99.90
11922;DHT22;6021;51.182;3.160;2023-07-31T10:40:41;18.10;99.90
11922;DHT22;6021;51.182;3.160;2023-07-31T10:43:09;18.20;99.90
11922;DHT22;6021;51.182;3.160;2023-07-31T10:45:44;18.00;99.90
11922;DHT22;6021;51.182;3.160;2023-07-31T10:48:16;18.20;99.90
11922;DHT22;6021;51.182;3.160;2023-07-31T10:50:54;18.20;99.90
11922;DHT22;6021;51.182;3.160;2023-07-31T10:53:29;18.30;99.90
11922;DHT22;6021;51.182;3.160;2023-07-31T10:55:59;18.20;99.90
11922;DHT22;6021;51.182;3.160;2023-07-31T10:58:28;18.20;99.90
11922;DHT22;6021;51.182;3.160;2023-07-31T11:01:03;18.20;99.90
11922;DHT22;6021;51.182;3.160;2023-07-31T11:03:50;18.20;99.90
11922;DHT22;6021;51.182;3.160;2023-07-31T11:06:21;18.20;99.90
11922;DHT22;6021;51.182;3.160;2023-07-31T11:08:50;18.10;99.90
11922;DHT22;6021;51.182;3.160;2023-07-31T11:11:20;18.00;99.90
11922;DHT22;6021;51.182;3.160;2023-07-31T11:13:53;18.00;99.90
11922;DHT22;6021;51.182;3.160;2023-07-31T11:16:23;18.00;99.90
11922;DHT22;6021;51.182;3.160;2023-07-31T11:18:52;18.10;99.90
11922;DHT22;6021;51.182;3.160;2023-07-31T11:21:23;18.20;99.90
11922;DHT22;6021;51.182;3.160;2023-07-31T11:23:53;18.20;99.90
11922;DHT22;6021;51.182;3.160;2023-07-31T11:26:23;18.10;99.90
11922;DHT22;6021;51.182;3.160;2023-07-31T11:28:52;18.10;99.90
11922;DHT22;6021;51.182;3.160;2023-07-31T11:31:20;18.10;99.90
11922;DHT22;6021;51.182;3.160;2023-07-31T11:33:49;18.20;99.90
11922;DHT22;6021;51.182;3.160;2023-07-31T11:36:18;18.10;99.90
11922;DHT22;6021;51.182;3.160;2023-07-31T11:38:47;18.10;99.90
11922;DHT22;6021;51.182;3.160;2023-07-31T11:41:16;18.10;99.90
11922;DHT22;6021;51.182;3.160;2023-07-31T11:43:46;18.10;99.90
11922;DHT22;6021;51.182;3.160;2023-07-31T11:46:14;18.30;99.90
11922;DHT22;6021;51.182;3.160;2023-07-31T11:48:43;18.20;99.90
11922;DHT22;6021;51.182;3.160;2023-07-31T11:51:13;18.20;99.90
11922;DHT22;6021;51.182;3.160;2023-07-31T11:53:52;18.20;99.90
11922;DHT22;6021;51.182;3.160;2023-07-31T11:56:20;18.10;99.90
11922;DHT22;6021;51.182;3.160;2023-07-31T11:58:52;18.10;99.90
11922;DHT22;6021;51.182;3.160;2023-07-31T12:01:22;18.10;99.90
11922;DHT22;6021;51.182;3.160;2023-07-31T12:03:51;18.10;99.90
11922;DHT22;6021;51.182;3.160;2023-07-31T12:06:20;18.10;99.90
11922;DHT22;6021;51.182;3.160;2023-07-31T12:08:49;18.10;99.90
11922;DHT22;6021;51.182;3.160;2023-07-31T12:11:17;18.20;99.90
11922;DHT22;6021;51.182;3.160;2023-07-31T12:13:45;18.10;99.90
11922;DHT22;6021;51.182;3.160;2023-07-31T12:16:14;18.20;99.90
11922;DHT22;6021;51.182;3.160;2023-07-31T12:18:42;18.10;99.90
11922;DHT22;6021;51.182;3.160;2023-07-31T12:21:11;18.10;99.90
11922;DHT22;6021;51.182;3.160;2023-07-31T12:23:40;18.20;99.90
11922;DHT22;6021;51.182;3.160;2023-07-31T12:26:13;18.20;99.90
11922;DHT22;6021;51.182;3.160;2023-07-31T12:28:49;18.20;99.90
11922;DHT22;6021;51.182;3.160;2023-07-31T12:31:22;18.20;99.90
11922;DHT22;6021;51.182;3.160;2023-07-31T12:33:51;18.20;99.90
11922;DHT22;6021;51.182;3.160;2023-07-31T12:36:24;18.20;99.90
11922;DHT22;6021;51.182;3.160;2023-07-31T12:38:52;18.30;99.90
11922;DHT22;6021;51.182;3.160;2023-07-31T12:41:21;18.30;99.90
11922;DHT22;6021;51.182;3.160;2023-07-31T12:43:49;18.20;99.90
11922;DHT22;6021;51.182;3.160;2023-07-31T12:46:19;18.30;99.90
11922;DHT22;6021;51.182;3.160;2023-07-31T12:48:47;18.30;99.90
11922;DHT22;6021;51.182;3.160;2023-07-31T12:51:15;18.20;99.90
11922;DHT22;6021;51.182;3.160;2023-07-31T12:53:44;18.20;99.90
11922;DHT22;6021;51.182;3.160;2023-07-31T12:56:12;18.20;99.90
11922;DHT22;6021;51.182;3.160;2023-07-31T12:58:41;18.20;99.90
11922;DHT22;6021;51.182;3.160;2023-07-31T13:01:09;18.00;99.90
11922;DHT22;6021;51.182;3.160;2023-07-31T13:03:37;18.10;99.90
11922;DHT22;6021;51.182;3.160;2023-07-31T13:06:06;18.00;99.90
11922;DHT22;6021;51.182;3.160;2023-07-31T13:08:34;18.00;99.90
11922;DHT22;6021;51.182;3.160;2023-07-31T13:11:02;18.00;99.90
11922;DHT22;6021;51.182;3.160;2023-07-31T13:13:31;18.00;99.90
11922;DHT22;6021;51.182;3.160;2023-07-31T13:16:00;18.00;99.90
11922;DHT22;6021;51.182;3.160;2023-07-31T13:18:28;18.10;99.90
11922;DHT22;6021;51.182;3.160;2023-07-31T13:20:57;18.00;99.90
11922;DHT22;6021;51.182;3.160;2023-07-31T13:23:25;18.00;99.90
11922;DHT22;6021;51.182;3.160;2023-07-31T13:25:53;18.10;99.90
11922;DHT22;6021;51.182;3.160;2023-07-31T13:28:22;18.10;99.90
11922;DHT22;6021;51.182;3.160;2023-07-31T13:30:50;18.20;99.90
11922;DHT22;6021;51.182;3.160;2023-07-31T13:33:18;18.10;99.90
11922;DHT22;6021;51.182;3.160;2023-07-31T13:35:47;18.10;99.90
11922;DHT22;6021;51.182;3.160;2023-07-31T13:38:15;18.10;99.90
11922;DHT22;6021;51.182;3.160;2023-07-31T13:40:44;18.10;99.90
11922;DHT22;6021;51.182;3.160;2023-07-31T13:43:12;18.20;99.90
11922;DHT22;6021;51.182;3.160;2023-07-31T13:45:40;18.10;99.90
11922;DHT22;6021;51.182;3.160;2023-07-31T13:48:09;18.10;99.90
11922;DHT22;6021;51.182;3.160;2023-07-31T13:50:37;18.20;99.90
11922;DHT22;6021;51.182;3.160;2023-07-31T13:53:05;18.20;99.90
11922;DHT22;6021;51.182;3.160;2023-07-31T13:55:34;18.10;99.90
11922;DHT22;6021;51.182;3.160;2023-07-31T13:58:02;18.20;99.90
11922;DHT22;6021;51.182;3.160;2023-07-31T14:00:31;18.10;99.90
11922;DHT22;6021;51.182;3.160;2023-07-31T14:02:59;18.10;99.90
11922;DHT22;6021;51.182;3.160;2023-07-31T14:05:27;18.20;99.90
11922;DHT22;6021;51.182;3.160;2023-07-31T14:07:56;18.10;99.90
11922;DHT22;6021;51.182;3.160;2023-07-31T14:10:25;18.10;99.90
11922;DHT22;6021;51.182;3.160;2023-07-31T14:12:53;18.10;99.90
11922;DHT22;6021;51.182;3.160;2023-07-31T14:15:21;18.10;99.90
11922;DHT22;6021;51.182;3.160;2023-07-31T14:17:50;18.10;99.90
11922;DHT22;6021;51.182;3.160;2023-07-31T14:20:18;18.10;99.90
11922;DHT22;6021;51.182;3.160;2023-07-31T14:22:47;18.10;99.90
11922;DHT22;6021;51.182;3.160;2023-07-31T14:25:15;18.10;99.90
11922;DHT22;6021;51.182;3.160;2023-07-31T14:27:43;18.10;99.90
11922;DHT22;6021;51.182;3.160;2023-07-31T14:30:12;18.10;99.90
11922;DHT22;6021;51.182;3.160;2023-07-31T14:32:40;18.10;99.90
11922;DHT22;6021;51.182;3.160;2023-07-31T14:35:09;18.20;99.90
11922;DHT22;6021;51.182;3.160;2023-07-31T14:37:41;18.30;99.90
11922;DHT22;6021;51.182;3.160;2023-07-31T14:40:12;18.30;99.90
11922;DHT22;6021;51.182;3.160;2023-07-31T14:42:40;18.30;99.90
11922;DHT22;6021;51.182;3.160;2023-07-31T14:45:09;18.30;99.90
11922;DHT22;6021;51.182;3.160;2023-07-31T14:47:38;18.30;99.90
11922;DHT22;6021;51.182;3.160;2023-07-31T14:50:07;18.20;99.90
11922;DHT22;6021;51.182;3.160;2023-07-31T14:52:36;18.20;99.90
11922;DHT22;6021;51.182;3.160;2023-07-31T14:55:05;18.10;99.90
11922;DHT22;6021;51.182;3.160;2023-07-31T14:57:33;18.10;99.90
11922;DHT22;6021;51.182;3.160;2023-07-31T15:00:02;18.10;99.90
11922;DHT22;6021;51.182;3.160;2023-07-31T15:02:34;18.10;99.90
11922;DHT22;6021;51.182;3.160;2023-07-31T15:05:02;18.10;99.90
11922;DHT22;6021;51.182;3.160;2023-07-31T15:07:31;18.10;99.90
11922;DHT22;6021;51.182;3.160;2023-07-31T15:10:03;18.10;99.90
11922;DHT22;6021;51.182;3.160;2023-07-31T15:12:32;18.10;99.90
11922;DHT22;6021;51.182;3.160;2023-07-31T15:15:01;18.10;99.90
11922;DHT22;6021;51.182;3.160;2023-07-31T15:17:29;18.10;99.90
11922;DHT22;6021;51.182;3.160;2023-07-31T15:19:58;18.10;99.90
11922;DHT22;6021;51.182;3.160;2023-07-31T15:22:26;18.20;99.90
11922;DHT22;6021;51.182;3.160;2023-07-31T15:24:54;18.20;99.90
11922;DHT22;6021;51.182;3.160;2023-07-31T15:27:23;18.20;99.90
11922;DHT22;6021;51.182;3.160;2023-07-31T15:29:51;18.20;99.90
11922;DHT22;6021;51.182;3.160;2023-07-31T15:32:21;18.20;99.90
11922;DHT22;6021;51.182;3.160;2023-07-31T15:34:49;18.30;99.90
11922;DHT22;6021;51.182;3.160;2023-07-31T15:37:18;18.20;99.90
11922;DHT22;6021;51.182;3.160;2023-07-31T15:39:46;18.30;99.90
11922;DHT22;6021;51.182;3.160;2023-07-31T15:42:15;18.30;99.90
11922;DHT22;6021;51.182;3.160;2023-07-31T15:44:43;18.30;99.90
11922;DHT22;6021;51.182;3.160;2023-07-31T15:47:12;18.40;99.90
11922;DHT22;6021;51.182;3.160;2023-07-31T15:49:40;18.30;99.90
11922;DHT22;6021;51.182;3.160;2023-07-31T15:52:08;18.30;99.90
11922;DHT22;6021;51.182;3.160;2023-07-31T15:54:37;18.30;99.90
11922;DHT22;6021;51.182;3.160;2023-07-31T15:57:05;18.30;99.90
11922;DHT22;6021;51.182;3.160;2023-07-31T15:59:34;18.30;99.90